Ana Sayfa
METAR-TAF:

METAR-TAF

Havaalanları :

Killeen, Teksas, Amerika Birleşik Devletleri

Enlem: 31-05N, Boylam: 097-41W, yükseklik: 258 m

Güncel hava durumu gözlemi

Rapor saat 07:56 UTC de 18 dakika önce yapıldı.
Rüzgar doğu/kuzeydoğudan 5 kt
Sıcaklık 18°C
Nem 100%
Basınç 1008 hPa
Görüş mesafesi: 16.1 km
4900 ft yükseklikte parçalı çok bulutlu
6000 ft yükseklikte parçalı çok bulutlu
11000 ft yükseklikte çok bulutlu
hafif yağmur

METAR: KILE 250756Z AUTO 07005KT 10SM -RA BKN049 BKN060 OVC110 18/18 A2977 RMK AO2 SLP069 P0003 T01830178

Saat: 03:14 (08:14 UTC)


TAF: eksik

4.000'den fazla havaalanı için hava durumu gözlemleri ve tahminleri (METAR ve TAF raporları).

Kullanılabilir istasyonlar harita üzerinde sarı ve kırmızı noktalarla gösterilir.

İstasyonun adını görmek için fareyi noktanın üzerinde gezdirin.

Sonrasında hava gözlem ve tahminlerini görmek için tıklayın.

Haritayı değiştirmek için: yaklaştırmak için siyah artı işaretli yeşil düğmeye ve uzaklaştırmak için de eksi işaretli düğmeye hızla tıklayın; bitişik haritalar için yeşil okları kullanın.


METAR-TAF: